Предлагаем Вашему вниманию английскую версию страницы: AUTOTAF.ME UIAA - aviation weather forecast Chita (Kadala)

AUTOTAF UIAA - авиапрогноз Чита (Кадала)

Сегодня рассвет 23:37 UTC, восход солнца 00:15 UTC,
местный полдень 04:39 UTC, заход солнца 09:03 UTC,
наступление темноты 09:40 UTC.

Краткий прогноз UIAA на 9 часов

AUTOTAF.ME UIAA 262000Z 2621/2706 VRB02MPS 6000 HZ BKN009    
  BECMG 2622/2700 4000  
  BECMG 2701/2703 5000  
  FM270600 31005MPS 9999 BKN009

Детальный прогноз UIAA на 24 часа

AUTOTAF.ME UIAA 262000Z 2621/2721 VRB02MPS 6000 HZ BKN009 TXM19/2706Z TNM28/2721Z  
  BECMG 2622/2700 4000  
  BECMG 2701/2703 5000  
  FM270600 31005MPS 9999 BKN009  
  BECMG 2710/2712 VRB02MPS   
  FM271800 VRB02MPS 1000 BR BKN010 
  FM272100 VRB02MPS 1000 BR SKC

Подробный табличный прогноз

Время (UTC) miniAUTOTAF на 3 ч WX FZLVL
M AGL
ICE TURB Т
(°С)
Тd
(°С)
f(%) QNH
(гПа)
WIND/T
18 VRB02MPS 1000 BR BKN003 BR SFC -20 -26 61 1022 ...
21 VRB02MPS 6000 HZ BKN009 HZ SFC -21 -26 63 1023 ...
27.01.2021
00 VRB02MPS 4000 HZ BKN009 HZ SFC -21 -26 63 1025 ...
03 VRB02MPS 5000 HZ BKN009 HZ SFC -20 -27 56 1025 ...
06 31005MPS 9999 BKN009 SFC MOD FL40/FL50 MOD FL50/FL60 -19 -27 50 1024 ...
09 30004MPS 9999 OVC009 SFC MOD FL40/FL50 -20 -27 56 1026 ...
12 VRB02MPS 9999 OVC010 SFC -21 -27 62 1028 ...
15 VRB02MPS 9999 OVC010 SFC -23 -29 59 1030 ...
18 VRB02MPS 1000 BR BKN010 BR SFC -25 -31 62 1031 ...
21 VRB02MPS 1000 BR SKC BR SFC -28 -32 65 1031 ...
28.01.2021
00 VRB02MPS 0500 FG IC SKC FG IC SFC -30 -33 70 1031 ...
03 VRB02MPS 9999 SKC SFC -27 -32 63 1028 ...
06 VRB02MPS 9999 BKN009 SFC -22 -29 53 1023 ...
09 VRB02MPS 0500 FG IC BKN008 FG IC SFC -23 -27 68 1022 ...
12 VRB02MPS 0500 FG IC BKN008 FG IC SFC -26 -29 73 1023 ...
15 VRB02MPS 0200 FG IC VV008 FG IC SFC -27 -31 71 1022 ...


Широта 52.02623°, долгота 113.3051°, высота 692 м абс.
Средняя высота рельефа местности 808 м абс.
Прогнозы обновляются четыре раза в сутки: в 02, 08, 14, 20 ч всемирного времени.


Выбрать прогноз по другой модели Чита (Кадала)
Онлайн-сводка гроз по Чита (Кадала) (для РФ и ближнего зарубежья)
Карта фактических гроз в окрестностях Чита (Кадала)
Динамические прогностические карты (ventusky.com)
Прогностическая карта высоты нижней границы облаков по Чита (Кадала) (windy.com)
Выбрать другой город

Прогноз предназначен для личного научно-познавательного использования частными лицами
и не предназначен для принятия важных решений и выполнения реальных полётов воздушных судов

При копировании или ином использовании любых материалов данного сайта ссылка на © meteocenter.asia обязательна.

0.7/1.1